Terminal Aerodrome Forecast
Issued by NWS

Home | Current Version | Previous Version | Text Only | Print | Product List | Glossary On
Versions: 1 2 3 4 5 6 7 8 9 10 11 12 13 14 15 16 17
261
FTUS42 KGSP 280532
TAFGMU
TAF
KGMU 280532Z 2806/2906 23006KT P6SM SCT060 BKN100
      TEMPO 2806/2808 VRB11KT 6SM -SHRA BR SCT040 BKN060
     FM280900 24006KT P6SM SCT100 BKN250
     FM281500 24012G20KT P6SM SCT060 BKN120 PROB30 2815/2820 4SM
      -TSRA OVC040CB
     FM282000 24012G20KT P6SM BKN070 PROB30 2820/2824 4SM -TSRA
      OVC040CB
     FM290000 25008KT P6SM SCT070 BKN250=

USA.gov is the U.S. government's official web portal to all federal, state and local government web resources and services.